Time;durP1;ratioP1;P1;durP2;ratioP2;P2;SDS_P1;SDS_P2;PMS_P1;PMS_P2;Temp;Humidity;BMP_temperature;BMP_pressure;BME280_temperature;BME280_humidity;BME280_pressure;Samples;Min_cycle;Max_cycle;Signal;HPM_P1;HPM_P2
2023/10/11 00:02:30;;;;;;;;;10.00;10.00;;;;;;;;6488860;31;8910;-66
2023/10/11 00:08:40;;;;;;;;;9.50;8.50;;;;;;;;6489275;39;9707;-65
2023/10/11 00:14:46;;;;;;;;;10.00;8.50;;;;;;;;6488763;46;8956;-65
2023/10/11 00:20:52;;;;;;;;;9.25;8.50;;;;;;;;6489458;39;8834;-64
2023/10/11 00:26:55;;;;;;;;;9.25;9.25;;;;;;;;6487972;39;8838;-65
2023/10/11 00:32:58;;;;;;;;;9.00;9.00;;;;;;;;6488102;39;8956;-65
2023/10/11 00:39:05;;;;;;;;;12.00;7.50;;;;;;;;6488082;46;8894;-65
2023/10/11 00:45:09;;;;;;;;;8.50;8.00;;;;;;;;6489203;39;9858;-65
2023/10/11 00:51:15;;;;;;;;;11.00;10.00;;;;;;;;6487709;31;8953;-66
2023/10/11 00:57:21;;;;;;;;;10.50;9.00;;;;;;;;6488991;31;8937;-66
2023/10/11 01:03:23;;;;;;;;;9.75;9.75;;;;;;;;6488773;46;8952;-66
2023/10/11 01:09:28;;;;;;;;;12.50;10.00;;;;;;;;6488511;39;9020;-66
2023/10/11 01:15:34;;;;;;;;;9.25;9.25;;;;;;;;6488218;46;8956;-66
2023/10/11 01:21:38;;;;;;;;;15.25;11.00;;;;;;;;6488251;46;8893;-66
2023/10/11 01:27:48;;;;;;;;;13.50;13.25;;;;;;;;6488388;39;8886;-66
2023/10/11 01:34:14;;;;;;;;;11.25;9.25;;;;;;;;6488542;39;8854;-66
2023/10/11 01:40:23;;;;;;;;;13.25;12.00;;;;;;;;6488210;39;8838;-64
2023/10/11 01:46:35;;;;;;;;;9.75;9.75;;;;;;;;6487833;31;8861;-66
2023/10/11 01:52:37;;;;;;;;;11.25;9.00;;;;;;;;6487309;39;8938;-65
2023/10/11 01:58:42;;;;;;;;;10.50;9.75;;;;;;;;6487556;46;8968;-66
2023/10/11 02:04:47;;;;;;;;;12.75;12.75;;;;;;;;6489040;31;8830;-66
2023/10/11 02:10:49;;;;;;;;;11.00;11.00;;;;;;;;6486993;39;8933;-67
2023/10/11 02:16:55;;;;;;;;;13.25;13.00;;;;;;;;6488947;31;8988;-65
2023/10/11 02:23:00;;;;;;;;;14.25;13.25;;;;;;;;6487023;39;8888;-66
2023/10/11 02:29:20;;;;;;;;;9.75;8.50;;;;;;;;6487272;39;8878;-66
2023/10/11 02:35:27;;;;;;;;;9.75;9.75;;;;;;;;6487952;39;8997;-65
2023/10/11 02:41:37;;;;;;;;;14.00;11.75;;;;;;;;6487257;39;8874;-66
2023/10/11 02:47:42;;;;;;;;;9.25;9.25;;;;;;;;6487529;39;8889;-67
2023/10/11 02:53:49;;;;;;;;;10.75;10.25;;;;;;;;6487508;31;9032;-65
2023/10/11 02:59:52;;;;;;;;;14.50;11.25;;;;;;;;6486948;39;8869;-66
2023/10/11 03:05:59;;;;;;;;;12.50;12.50;;;;;;;;6487495;47;8897;-67
2023/10/11 03:12:17;;;;;;;;;14.25;13.75;;;;;;;;6486713;39;9052;-66
2023/10/11 03:18:27;;;;;;;;;13.25;10.75;;;;;;;;6486490;46;8849;-66
2023/10/11 03:24:33;;;;;;;;;18.75;16.00;;;;;;;;6486815;31;8822;-66
2023/10/11 03:30:42;;;;;;;;;14.00;13.00;;;;;;;;6486540;47;8884;-65
2023/10/11 03:36:52;;;;;;;;;13.00;13.00;;;;;;;;6485734;31;8953;-66
2023/10/11 03:43:01;;;;;;;;;13.00;13.00;;;;;;;;6487778;39;8849;-65
2023/10/11 03:55:23;;;;;;;;;14.75;13.75;;;;;;;;6486545;39;8948;-65
2023/10/11 04:01:36;;;;;;;;;21.00;17.75;;;;;;;;6488184;39;9689;-66
2023/10/11 04:07:40;;;;;;;;;19.50;16.00;;;;;;;;6488500;39;8910;-65
2023/10/11 04:13:46;;;;;;;;;12.50;12.50;;;;;;;;6488495;39;8870;-66
2023/10/11 04:19:54;;;;;;;;;17.75;15.25;;;;;;;;6487881;39;9112;-66
2023/10/11 04:26:08;;;;;;;;;14.00;14.00;;;;;;;;6488488;39;8908;-66
2023/10/11 04:32:14;;;;;;;;;21.50;17.25;;;;;;;;6487466;39;8921;-66
2023/10/11 04:38:20;;;;;;;;;22.00;17.75;;;;;;;;6488124;39;8925;-66
2023/10/11 04:44:42;;;;;;;;;23.50;23.00;;;;;;;;6489332;31;8926;-67
2023/10/11 04:50:50;;;;;;;;;18.50;17.50;;;;;;;;6489120;39;9039;-68
2023/10/11 04:56:59;;;;;;;;;20.75;17.75;;;;;;;;6488847;39;9069;-67
2023/10/11 05:03:03;;;;;;;;;24.75;18.00;;;;;;;;6464329;39;8999;-56
